Time;durP1;ratioP1;P1;durP2;ratioP2;P2;SDS_P1;SDS_P2;PMS_P1;PMS_P2;Temp;Humidity;BMP_temperature;BMP_pressure;BME280_temperature;BME280_humidity;BME280_pressure;Samples;Min_cycle;Max_cycle;Signal;HPM_P1;HPM_P2
2021/10/23 00:00:39;;;;;;;13.80;10.82;;;;;;;16.62;100.00;101222.44;4923854;29;20484;-71
2021/10/23 00:03:25;;;;;;;14.65;10.30;;;;;;;16.68;100.00;101224.91;4938153;28;20114;-71
2021/10/23 00:06:11;;;;;;;13.10;9.88;;;;;;;16.86;100.00;101218.94;4923795;29;20040;-71
2021/10/23 00:08:57;;;;;;;13.75;10.10;;;;;;;16.63;100.00;101227.69;4936274;29;20055;-72
2021/10/23 00:11:42;;;;;;;15.02;9.95;;;;;;;16.48;100.00;101222.91;4937682;29;20031;-72
2021/10/23 00:14:28;;;;;;;12.48;10.38;;;;;;;16.61;100.00;101216.31;4937273;29;20036;-71
2021/10/23 00:17:14;;;;;;;14.43;10.07;;;;;;;16.72;100.00;101215.94;4937629;29;20043;-72
2021/10/23 00:20:01;;;;;;;12.75;9.73;;;;;;;16.71;100.00;101219.47;4937296;29;20063;-71
2021/10/23 00:22:47;;;;;;;14.18;10.05;;;;;;;16.53;100.00;101221.00;4936950;29;20082;-71
2021/10/23 00:25:32;;;;;;;13.20;9.60;;;;;;;16.84;100.00;101224.28;4937378;29;20123;-71
2021/10/23 00:28:26;;;;;;;12.77;10.02;;;;;;;16.75;100.00;101215.81;4937123;29;20063;-72
2021/10/23 00:31:12;;;;;;;11.63;9.73;;;;;;;16.61;100.00;101211.00;4940324;28;20070;-71
2021/10/23 00:33:58;;;;;;;13.13;9.95;;;;;;;16.86;100.00;101209.25;4941148;29;20489;-71
2021/10/23 00:36:44;;;;;;;14.77;10.05;;;;;;;16.97;100.00;101214.16;4940768;29;20031;-72
2021/10/23 00:39:29;;;;;;;13.77;11.25;;;;;;;16.96;100.00;101209.78;4940647;29;20028;-72
2021/10/23 00:42:15;;;;;;;13.00;9.82;;;;;;;16.95;100.00;101210.66;4939945;29;20434;-72
2021/10/23 00:45:02;;;;;;;12.35;9.05;;;;;;;16.74;100.00;101211.44;4940393;29;20397;-71
2021/10/23 00:47:47;;;;;;;13.27;9.68;;;;;;;16.74;100.00;101208.78;4926565;29;20129;-72
2021/10/23 00:50:33;;;;;;;12.13;9.30;;;;;;;16.47;100.00;101212.41;4940738;29;20023;-71
2021/10/23 00:53:21;;;;;;;14.93;10.30;;;;;;;16.76;100.00;101206.97;4940471;29;20085;-71
2021/10/23 00:56:07;;;;;;;13.00;10.50;;;;;;;16.88;100.00;101201.25;4941129;29;20031;-72
2021/10/23 00:58:53;;;;;;;15.25;10.50;;;;;;;16.83;100.00;101196.09;4941475;28;20043;-71
2021/10/23 01:01:39;;;;;;;13.15;10.48;;;;;;;16.77;100.00;101191.03;4926839;29;20042;-71
2021/10/23 01:04:25;;;;;;;12.60;10.55;;;;;;;16.78;100.00;101194.53;4941229;28;20126;-72
2021/10/23 01:07:11;;;;;;;16.00;10.50;;;;;;;16.88;100.00;101196.78;4940041;29;20089;-71
2021/10/23 01:09:57;;;;;;;16.17;10.68;;;;;;;16.92;100.00;101197.56;4939247;29;20052;-71
2021/10/23 01:12:44;;;;;;;14.98;11.18;;;;;;;16.98;100.00;101184.09;4940477;29;20032;-71
2021/10/23 01:15:32;;;;;;;24.23;17.40;;;;;;;17.06;100.00;101189.97;4940909;29;20043;-72
2021/10/23 01:18:18;;;;;;;15.13;11.45;;;;;;;16.81;100.00;101186.50;4927476;28;20074;-71
2021/10/23 01:21:04;;;;;;;15.02;11.75;;;;;;;17.07;100.00;101187.28;4940444;28;20123;-72
2021/10/23 01:23:50;;;;;;;13.50;11.25;;;;;;;16.92;100.00;101182.53;4940431;28;20115;-71
2021/10/23 01:26:37;;;;;;;15.50;11.13;;;;;;;16.91;100.00;101177.28;4940583;28;20041;-72
2021/10/23 01:29:23;;;;;;;15.02;11.45;;;;;;;16.89;100.00;101187.09;4940764;28;20028;-71
2021/10/23 01:32:08;;;;;;;14.20;11.13;;;;;;;16.77;100.00;101176.94;4939825;29;20024;-72
2021/10/23 01:34:54;;;;;;;14.43;10.73;;;;;;;16.83;100.00;101185.50;4939902;29;20034;-71
2021/10/23 01:37:47;;;;;;;14.30;11.32;;;;;;;16.59;100.00;101188.19;4939490;29;20032;-71
2021/10/23 01:40:33;;;;;;;14.32;11.57;;;;;;;16.16;100.00;101199.25;4939678;29;20112;-71
2021/10/23 01:43:19;;;;;;;14.27;11.27;;;;;;;16.19;100.00;101190.41;4939419;29;20082;-71
2021/10/23 01:46:05;;;;;;;33.63;12.98;;;;;;;16.39;100.00;101195.91;4940055;29;20035;-71
2021/10/23 01:48:51;;;;;;;20.63;12.25;;;;;;;16.64;100.00;101199.47;4927197;29;20028;-71
2021/10/23 01:51:37;;;;;;;17.25;12.07;;;;;;;16.33;100.00;101198.72;4939850;28;20027;-71
2021/10/23 01:54:23;;;;;;;16.27;11.13;;;;;;;16.51;100.00;101206.09;4939789;29;20127;-71
2021/10/23 01:57:09;;;;;;;16.48;12.25;;;;;;;16.19;100.00;101214.19;4939345;29;20067;-71
2021/10/23 01:59:54;;;;;;;15.57;12.05;;;;;;;16.22;100.00;101201.72;4940242;29;20024;-71
2021/10/23 02:02:41;;;;;;;13.63;11.30;;;;;;;16.06;100.00;101197.84;4940162;29;20059;-71
2021/10/23 02:05:27;;;;;;;15.90;11.27;;;;;;;16.41;100.00;101208.19;4939722;29;20453;-71
2021/10/23 02:08:13;;;;;;;18.10;12.05;;;;;;;16.21;100.00;101207.94;4939979;28;20110;-72
2021/10/23 02:10:59;;;;;;;19.52;12.60;;;;;;;16.17;100.00;101216.00;4938283;29;20047;-71
2021/10/23 02:13:45;;;;;;;15.85;11.25;;;;;;;15.69;100.00;101221.06;4939414;29;20121;-71
2021/10/23 02:16:31;;;;;;;16.50;12.63;;;;;;;15.86;100.00;101218.75;4938963;29;20122;-71
2021/10/23 02:19:17;;;;;;;15.45;11.98;;;;;;;15.70;100.00;101219.25;4939764;28;20388;-71
2021/10/23 02:22:02;;;;;;;16.15;12.65;;;;;;;15.76;100.00;101225.25;4938196;29;20040;-72
2021/10/23 02:24:48;;;;;;;16.02;12.73;;;;;;;15.78;100.00;101222.53;4939160;28;20031;-70
2021/10/23 02:27:34;;;;;;;17.05;12.13;;;;;;;15.41;100.00;101224.53;4939397;29;20040;-71
2021/10/23 02:30:20;;;;;;;15.75;12.60;;;;;;;15.61;100.00;101232.75;4938765;29;20032;-72
2021/10/23 02:33:05;;;;;;;15.40;12.75;;;;;;;15.72;100.00;101230.66;4925413;29;20074;-71
2021/10/23 02:35:51;;;;;;;15.93;11.70;;;;;;;16.01;100.00;101231.50;4938123;29;20030;-71
2021/10/23 02:38:37;;;;;;;15.70;11.93;;;;;;;15.57;100.00;101229.34;4938908;29;20042;-72
2021/10/23 02:41:24;;;;;;;16.40;12.38;;;;;;;15.72;100.00;101234.19;4939072;28;20028;-73
2021/10/23 02:44:10;;;;;;;15.35;12.30;;;;;;;15.50;100.00;101234.84;4938186;29;20111;-72
2021/10/23 02:46:56;;;;;;;13.90;11.90;;;;;;;15.72;100.00;101247.38;4937843;29;20114;-72
2021/10/23 02:49:42;;;;;;;15.52;12.55;;;;;;;15.28;100.00;101246.91;4939247;28;20023;-71
2021/10/23 02:52:28;;;;;;;17.50;13.55;;;;;;;15.67;100.00;101248.44;4938873;28;20035;-71
2021/10/23 02:55:14;;;;;;;16.45;12.70;;;;;;;15.99;100.00;101245.69;4939621;28;20027;-71
2021/10/23 02:58:00;;;;;;;20.65;13.32;;;;;;;15.68;100.00;101248.41;4924304;29;20042;-72
2021/10/23 03:00:46;;;;;;;21.67;14.55;;;;;;;15.50;100.00;101251.56;4938544;29;20314;-72
2021/10/23 03:03:32;;;;;;;18.88;14.05;;;;;;;15.87;100.00;101254.81;4938166;29;20035;-72
2021/10/23 03:06:18;;;;;;;20.13;14.82;;;;;;;15.78;100.00;101251.59;4938735;29;20051;-72
2021/10/23 03:09:04;;;;;;;19.40;14.65;;;;;;;15.81;100.00;101251.50;4938373;28;20071;-71
2021/10/23 03:11:50;;;;;;;21.45;14.93;;;;;;;15.95;100.00;101254.63;4938477;29;20027;-72
2021/10/23 03:14:35;;;;;;;18.02;14.55;;;;;;;16.21;100.00;101252.88;4938596;28;20106;-72
2021/10/23 03:17:21;;;;;;;18.38;14.50;;;;;;;16.21;100.00;101252.00;4938213;29;20038;-71
2021/10/23 03:20:08;;;;;;;16.85;13.50;;;;;;;16.35;100.00;101249.81;4937795;29;20047;-71
2021/10/23 03:22:53;;;;;;;17.92;13.63;;;;;;;15.99;100.00;101243.88;4923799;29;20132;-72
2021/10/23 03:25:39;;;;;;;18.58;12.77;;;;;;;15.97;100.00;101250.13;4924164;29;20027;-71
2021/10/23 03:28:25;;;;;;;18.08;13.43;;;;;;;16.13;100.00;101244.34;4938689;28;20035;-72
2021/10/23 03:31:11;;;;;;;15.73;12.45;;;;;;;15.95;100.00;101236.97;4938528;29;20042;-71
2021/10/23 03:33:56;;;;;;;19.15;13.68;;;;;;;15.61;100.00;101243.31;4938359;29;20342;-72
2021/10/23 03:36:42;;;;;;;19.75;13.55;;;;;;;15.90;100.00;101256.50;4937724;29;20027;-72
2021/10/23 03:39:28;;;;;;;19.50;13.63;;;;;;;16.01;100.00;101251.78;4937886;29;20309;-72
2021/10/23 03:42:14;;;;;;;17.67;13.45;;;;;;;15.62;100.00;101258.25;4938105;28;20449;-72
2021/10/23 03:44:59;;;;;;;18.52;13.43;;;;;;;15.65;100.00;101242.31;4937901;29;20032;-73
2021/10/23 03:47:45;;;;;;;18.13;12.68;;;;;;;15.76;100.00;101246.38;4938112;29;20074;-73
2021/10/23 03:50:31;;;;;;;16.48;12.63;;;;;;;15.91;100.00;101251.19;4938259;28;20055;-72
2021/10/23 03:53:17;;;;;;;16.33;13.40;;;;;;;16.01;100.00;101252.66;4937162;29;20091;-71
2021/10/23 03:56:03;;;;;;;16.52;12.05;;;;;;;15.94;100.00;101248.44;4924734;29;20039;-72
2021/10/23 03:58:49;;;;;;;18.88;13.13;;;;;;;15.95;100.00;101254.63;4937724;29;20032;-71
2021/10/23 04:01:35;;;;;;;16.92;12.70;;;;;;;15.74;100.00;101260.53;4936879;29;20035;-72
2021/10/23 04:04:20;;;;;;;17.25;12.98;;;;;;;15.80;100.00;101260.34;4937427;28;20039;-72
2021/10/23 04:07:06;;;;;;;15.90;12.07;;;;;;;16.23;100.00;101248.41;4941277;29;20023;-71
2021/10/23 04:09:52;;;;;;;16.73;11.55;;;;;;;15.54;100.00;101258.47;4941038;29;20083;-72
2021/10/23 04:12:38;;;;;;;18.08;12.20;;;;;;;16.06;100.00;101263.06;4941869;28;20020;-71
2021/10/23 04:15:23;;;;;;;20.23;12.13;;;;;;;15.87;100.00;101275.13;4941689;29;20024;-72
2021/10/23 04:18:09;;;;;;;15.60;11.63;;;;;;;16.31;100.00;101277.25;4940689;29;20035;-72
2021/10/23 04:20:55;;;;;;;16.55;12.10;;;;;;;16.42;100.00;101272.50;4941444;29;20134;-73
2021/10/23 04:23:41;;;;;;;14.43;11.68;;;;;;;16.09;100.00;101277.06;4941789;28;20024;-71
2021/10/23 04:26:27;;;;;;;15.48;11.52;;;;;;;15.76;100.00;101274.56;4940903;29;20036;-72
2021/10/23 04:29:12;;;;;;;15.10;11.88;;;;;;;15.84;100.00;101284.00;4927096;29;20024;-72
2021/10/23 04:31:58;;;;;;;16.85;12.75;;;;;;;15.80;100.00;101279.72;4941508;28;20028;-71
2021/10/23 04:34:44;;;;;;;19.35;12.52;;;;;;;16.31;100.00;101279.91;4927557;29;20102;-72
2021/10/23 04:37:31;;;;;;;16.90;12.38;;;;;;;16.04;100.00;101281.59;4941172;28;20028;-72
2021/10/23 04:40:17;;;;;;;16.67;12.00;;;;;;;16.14;100.00;101293.63;4941082;29;20452;-71
2021/10/23 04:43:02;;;;;;;16.92;11.90;;;;;;;16.31;100.00;101291.31;4941225;28;20516;-72
2021/10/23 04:45:48;;;;;;;17.25;12.27;;;;;;;16.13;100.00;101288.41;4939934;29;20114;-71
2021/10/23 04:48:35;;;;;;;18.48;12.48;;;;;;;15.86;100.00;101290.09;4941151;29;20027;-71
2021/10/23 04:51:21;;;;;;;16.67;12.07;;;;;;;15.84;100.00;101284.00;4941438;28;20043;-72
2021/10/23 04:54:07;;;;;;;19.13;12.27;;;;;;;16.07;100.00;101293.88;4940734;28;20086;-72
2021/10/23 04:56:53;;;;;;;16.40;12.45;;;;;;;15.91;100.00;101297.91;4941013;29;20028;-72
2021/10/23 04:59:38;;;;;;;20.45;13.55;;;;;;;15.91;100.00;101293.47;4941205;29;20519;-72
2021/10/23 05:02:24;;;;;;;22.27;12.93;;;;;;;15.90;100.00;101302.31;4941145;28;20067;-72
2021/10/23 05:05:10;;;;;;;17.17;13.38;;;;;;;16.04;100.00;101307.19;4940170;29;20042;-72
2021/10/23 05:07:56;;;;;;;20.10;13.35;;;;;;;15.92;100.00;101307.56;4939037;29;20401;-72
2021/10/23 05:10:41;;;;;;;18.20;13.25;;;;;;;16.08;100.00;101312.31;4940282;28;20056;-72
2021/10/23 05:13:27;;;;;;;19.35;13.07;;;;;;;16.01;100.00;101312.56;4940924;28;20127;-71
2021/10/23 05:16:13;;;;;;;21.92;13.80;;;;;;;16.00;100.00;101317.00;4939028;29;20369;-72
2021/10/23 05:18:59;;;;;;;19.20;13.75;;;;;;;16.06;100.00;101321.22;4940553;29;20028;-72
2021/10/23 05:21:44;;;;;;;28.02;14.50;;;;;;;16.17;100.00;101321.75;4939619;29;20353;-72
2021/10/23 05:24:30;;;;;;;18.23;14.07;;;;;;;16.18;100.00;101328.78;4940140;29;20071;-72
2021/10/23 05:27:16;;;;;;;24.00;14.73;;;;;;;15.97;100.00;101332.06;4940064;28;20023;-72
2021/10/23 05:30:03;;;;;;;22.52;14.77;;;;;;;16.26;100.00;101342.63;4940066;29;20031;-72
2021/10/23 05:32:48;;;;;;;17.08;13.00;;;;;;;16.37;100.00;101351.09;4925713;29;20101;-72
2021/10/23 05:35:34;;;;;;;21.20;13.60;;;;;;;16.42;100.00;101363.31;4940097;28;20035;-72
2021/10/23 05:38:20;;;;;;;21.35;13.63;;;;;;;16.30;100.00;101357.47;4939937;29;20067;-72
2021/10/23 05:41:06;;;;;;;20.45;13.70;;;;;;;16.12;100.00;101360.69;4938843;29;20468;-72
2021/10/23 05:43:52;;;;;;;22.40;13.82;;;;;;;16.20;100.00;101366.63;4940581;28;20028;-72
2021/10/23 05:46:39;;;;;;;22.80;14.80;;;;;;;16.01;100.00;101366.31;4940500;28;20043;-73
2021/10/23 05:49:26;;;;;;;21.38;14.27;;;;;;;16.59;100.00;101381.31;4940872;28;20046;-72
2021/10/23 05:52:12;;;;;;;25.30;13.07;;;;;;;16.53;100.00;101392.94;4940185;28;20136;-71
2021/10/23 05:54:57;;;;;;;18.63;12.85;;;;;;;17.02;100.00;101395.75;4939829;29;20047;-72
2021/10/23 05:57:43;;;;;;;18.75;12.20;;;;;;;17.05;100.00;101394.78;4938585;29;20024;-72
2021/10/23 06:00:29;;;;;;;18.02;11.93;;;;;;;17.14;100.00;101415.66;4940137;28;20051;-72
2021/10/23 06:03:19;;;;;;;17.98;11.35;;;;;;;17.14;100.00;101410.34;4939448;29;20023;-72
2021/10/23 06:06:08;;;;;;;14.90;11.43;;;;;;;16.89;100.00;101415.59;4939200;29;20353;-72
2021/10/23 06:08:55;;;;;;;16.67;11.13;;;;;;;17.49;100.00;101412.72;4939720;28;20088;-72
2021/10/23 06:11:40;;;;;;;16.25;10.93;;;;;;;17.42;100.00;101412.06;4939389;29;20043;-72
2021/10/23 06:14:26;;;;;;;14.15;10.30;;;;;;;17.52;100.00;101418.75;4938944;29;20114;-73
2021/10/23 06:17:12;;;;;;;13.43;10.50;;;;;;;17.18;100.00;101425.22;4938598;29;20020;-72
2021/10/23 06:19:58;;;;;;;14.50;10.70;;;;;;;17.37;100.00;101418.41;4925474;29;20032;-72
2021/10/23 06:22:51;;;;;;;15.13;10.85;;;;;;;17.54;100.00;101416.06;4939297;28;20035;-72
2021/10/23 06:25:37;;;;;;;12.48;10.43;;;;;;;17.49;100.00;101420.66;4939027;28;20046;-72
2021/10/23 06:28:22;;;;;;;14.68;11.07;;;;;;;17.46;100.00;101415.47;4939231;28;20062;-72
2021/10/23 06:31:08;;;;;;;12.82;10.43;;;;;;;17.70;100.00;101427.84;4939075;29;20098;-72
2021/10/23 06:33:54;;;;;;;11.68;10.20;;;;;;;17.76;100.00;101420.53;4926028;29;20027;-72
2021/10/23 06:36:40;;;;;;;13.68;10.43;;;;;;;17.60;100.00;101429.97;4938719;29;20039;-72
2021/10/23 06:39:25;;;;;;;12.30;10.95;;;;;;;17.16;100.00;101429.72;4925221;29;20023;-72
2021/10/23 06:42:11;;;;;;;15.52;11.75;;;;;;;17.57;100.00;101440.66;4938786;29;20032;-72
2021/10/23 06:44:57;;;;;;;18.67;11.93;;;;;;;17.24;100.00;101444.41;4937952;29;20031;-72
2021/10/23 06:47:43;;;;;;;16.77;11.13;;;;;;;17.06;100.00;101460.03;4938539;28;20031;-72
2021/10/23 06:50:28;;;;;;;13.18;10.65;;;;;;;17.38;100.00;101465.16;4939526;28;20027;-72
2021/10/23 06:53:15;;;;;;;12.75;10.65;;;;;;;16.97;100.00;101466.53;4939020;28;20023;-71
2021/10/23 06:56:01;;;;;;;16.13;10.82;;;;;;;17.29;100.00;101469.00;4939175;28;20023;-72
2021/10/23 06:58:46;;;;;;;14.60;10.70;;;;;;;17.29;100.00;101473.41;4938142;29;20031;-73
2021/10/23 07:01:32;;;;;;;14.35;10.75;;;;;;;17.51;100.00;101477.09;4938596;28;20028;-72
2021/10/23 07:04:18;;;;;;;17.02;10.75;;;;;;;17.70;100.00;101462.31;4938580;28;20039;-71
2021/10/23 07:07:04;;;;;;;14.35;10.45;;;;;;;17.13;100.00;101472.19;4937651;29;20063;-71
2021/10/23 07:09:50;;;;;;;14.13;10.20;;;;;;;17.29;100.00;101476.06;4937727;28;20059;-72
2021/10/23 07:12:37;;;;;;;17.60;10.68;;;;;;;17.51;100.00;101474.44;4938440;29;20455;-72
2021/10/23 07:15:23;;;;;;;12.65;10.13;;;;;;;17.50;100.00;101484.19;4937514;29;20463;-72
2021/10/23 07:18:09;;;;;;;16.67;10.00;;;;;;;17.94;100.00;101480.00;4937794;29;20110;-72
2021/10/23 07:20:55;;;;;;;11.82;9.32;;;;;;;17.69;100.00;101495.03;4937500;29;20103;-72
2021/10/23 07:23:40;;;;;;;12.25;9.18;;;;;;;17.78;100.00;101487.66;4936963;29;20070;-71
2021/10/23 07:26:26;;;;;;;11.60;9.10;;;;;;;17.31;100.00;101490.09;4937158;29;20031;-72
2021/10/23 07:29:13;;;;;;;14.55;11.60;;;;;;;17.76;100.00;101488.63;4938487;29;20357;-72
2021/10/23 07:31:59;;;;;;;17.13;12.07;;;;;;;17.98;100.00;101485.16;4938322;28;20023;-73
2021/10/23 07:34:45;;;;;;;13.85;8.98;;;;;;;17.72;100.00;101490.50;4937946;29;20337;-73
2021/10/23 07:37:31;;;;;;;17.90;13.05;;;;;;;17.72;100.00;101500.25;4937257;29;20024;-72
2021/10/23 07:40:16;;;;;;;11.98;9.60;;;;;;;18.18;100.00;101495.03;4937656;29;20023;-71
2021/10/23 07:43:02;;;;;;;11.00;9.23;;;;;;;17.92;100.00;101495.97;4923217;29;20032;-72
2021/10/23 07:45:49;;;;;;;11.63;9.02;;;;;;;18.35;100.00;101504.16;4937098;29;20472;-72
2021/10/23 07:48:36;;;;;;;11.75;9.07;;;;;;;17.95;100.00;101498.53;4937629;29;20039;-72
2021/10/23 07:51:22;;;;;;;22.67;13.00;;;;;;;18.53;100.00;101498.16;4936986;29;20028;-72
2021/10/23 07:54:09;;;;;;;15.93;9.05;;;;;;;18.42;100.00;101499.47;4936686;29;20023;-71
2021/10/23 07:56:57;;;;;;;13.75;9.00;;;;;;;18.59;100.00;101500.59;4937122;29;20066;-71
2021/10/23 07:59:45;;;;;;;14.88;8.70;;;;;;;18.91;100.00;101494.03;4936869;29;20027;-72
2021/10/23 08:02:31;;;;;;;10.70;8.82;;;;;;;18.95;100.00;101504.47;4936603;29;20055;-71
2021/10/23 08:05:18;;;;;;;9.35;7.97;;;;;;;19.26;100.00;101511.25;4937731;29;20032;-72
2021/10/23 08:08:05;;;;;;;10.55;8.43;;;;;;;19.39;100.00;101523.09;4923087;29;20035;-72
2021/10/23 08:10:51;;;;;;;10.65;7.88;;;;;;;19.77;100.00;101514.41;4937222;28;20075;-72
2021/10/23 08:13:37;;;;;;;14.45;8.77;;;;;;;19.44;100.00;101516.69;4923474;29;20035;-72
2021/10/23 08:16:22;;;;;;;16.48;9.20;;;;;;;19.88;100.00;101518.34;4937406;29;20083;-72
2021/10/23 08:19:08;;;;;;;15.88;8.38;;;;;;;20.09;100.00;101520.09;4936348;29;20412;-72
2021/10/23 08:21:54;;;;;;;15.32;8.98;;;;;;;20.60;100.00;101514.22;4937017;29;20028;-72
2021/10/23 08:24:41;;;;;;;11.15;8.75;;;;;;;20.53;100.00;101523.47;4935976;29;20028;-72
2021/10/23 08:27:26;;;;;;;11.18;8.25;;;;;;;20.29;100.00;101516.56;4936991;29;20051;-72
2021/10/23 08:30:16;;;;;;;10.07;8.55;;;;;;;20.43;100.00;101517.69;4937330;29;20043;-72
2021/10/23 08:33:02;;;;;;;13.63;8.60;;;;;;;20.46;100.00;101516.66;4937433;29;20361;-71
2021/10/23 08:35:48;;;;;;;10.50;8.02;;;;;;;20.97;100.00;101532.94;4936302;29;20106;-72
2021/10/23 08:38:34;;;;;;;13.48;7.50;;;;;;;20.72;100.00;101527.84;4936580;29;20042;-73
2021/10/23 08:41:20;;;;;;;8.93;7.88;;;;;;;20.56;100.00;101524.16;4935693;29;20100;-72
2021/10/23 08:44:06;;;;;;;11.38;8.05;;;;;;;20.58;100.00;101527.59;4922790;29;20139;-72
2021/10/23 08:46:53;;;;;;;11.38;8.32;;;;;;;20.38;100.00;101533.00;4936763;29;20039;-73
2021/10/23 08:49:41;;;;;;;13.55;7.82;;;;;;;20.54;100.00;101536.66;4936955;29;20028;-72
2021/10/23 08:52:27;;;;;;;12.60;8.30;;;;;;;20.67;100.00;101537.00;4940229;29;20039;-72
2021/10/23 08:55:14;;;;;;;10.15;8.30;;;;;;;20.64;100.00;101542.44;4940410;29;20032;-72
2021/10/23 08:58:00;;;;;;;21.83;14.63;;;;;;;20.79;100.00;101545.28;4940198;29;20475;-71
2021/10/23 09:00:46;;;;;;;11.32;8.40;;;;;;;20.97;100.00;101541.78;4940657;29;20122;-72
2021/10/23 09:03:32;;;;;;;8.55;7.65;;;;;;;21.11;100.00;101533.16;4939857;29;20414;-70
2021/10/23 09:06:39;;;;;;;8.82;7.90;;;;;;;21.35;100.00;101538.16;4940116;29;20118;-71
2021/10/23 09:09:25;;;;;;;13.25;10.45;;;;;;;21.68;100.00;101541.81;4926648;29;20079;-71
2021/10/23 09:12:27;;;;;;;11.00;8.00;;;;;;;21.85;100.00;101539.19;4926155;29;20028;-71
2021/10/23 09:15:16;;;;;;;9.52;7.78;;;;;;;21.90;100.00;101537.16;4926438;29;20028;-71
2021/10/23 09:18:02;;;;;;;10.55;8.00;;;;;;;22.04;100.00;101540.00;4939438;29;20110;-70
2021/10/23 09:20:48;;;;;;;8.45;7.07;;;;;;;22.23;100.00;101538.06;4940300;29;20086;-71
2021/10/23 09:23:34;;;;;;;7.43;6.43;;;;;;;21.92;100.00;101534.41;4939909;29;20031;-70
2021/10/23 09:26:37;;;;;;;8.60;7.07;;;;;;;21.91;100.00;101532.69;4939806;29;20031;-71
2021/10/23 09:29:24;;;;;;;9.68;6.63;;;;;;;22.38;100.00;101541.78;4926757;29;20043;-71
2021/10/23 09:32:11;;;;;;;10.18;7.47;;;;;;;22.08;100.00;101532.69;4940038;29;20098;-71
2021/10/23 09:35:18;;;;;;;7.80;7.00;;;;;;;21.57;100.00;101543.28;4940098;29;20394;-72
2021/10/23 09:38:05;;;;;;;9.68;6.68;;;;;;;21.78;100.00;101537.78;4939584;29;20051;-71
2021/10/23 09:40:53;;;;;;;8.40;7.38;;;;;;;22.28;100.00;101538.72;4939178;29;20122;-71
2021/10/23 09:43:40;;;;;;;9.88;7.00;;;;;;;22.18;100.00;101541.94;4939558;29;20027;-71
2021/10/23 09:46:25;;;;;;;9.73;7.32;;;;;;;22.31;100.00;101543.03;4939007;29;20409;-73
2021/10/23 09:49:11;;;;;;;11.10;6.93;;;;;;;21.99;100.00;101533.16;4939749;29;20020;-72
2021/10/23 09:52:05;;;;;;;9.15;6.82;;;;;;;21.91;100.00;101530.88;4938999;29;20464;-70
2021/10/23 09:55:05;;;;;;;8.65;6.40;;;;;;;21.91;100.00;101536.19;4939525;29;20031;-71
2021/10/23 09:58:17;;;;;;;11.05;6.63;;;;;;;22.05;100.00;101535.50;4939374;29;20024;-74
2021/10/23 10:01:04;;;;;;;7.82;6.80;;;;;;;22.29;100.00;101536.88;4925175;29;20035;-71
2021/10/23 10:03:53;;;;;;;8.23;6.97;;;;;;;22.35;100.00;101524.06;4923599;29;20373;-71
2021/10/23 10:06:43;;;;;;;9.07;7.88;;;;;;;22.38;100.00;101521.25;4939159;29;20027;-71
2021/10/23 10:09:29;;;;;;;10.18;8.05;;;;;;;22.24;100.00;101537.16;4938233;29;20048;-72
2021/10/23 10:12:15;;;;;;;11.63;7.63;;;;;;;21.82;100.00;101541.19;4938471;29;20098;-71
2021/10/23 10:15:06;;;;;;;11.63;8.15;;;;;;;21.99;100.00;101535.84;4938442;29;20027;-70
2021/10/23 10:17:52;;;;;;;11.75;8.05;;;;;;;22.39;100.00;101541.66;4925570;29;20527;-71
2021/10/23 10:20:43;;;;;;;12.23;8.45;;;;;;;22.10;100.00;101528.13;4939243;29;20062;-71
2021/10/23 10:23:36;;;;;;;13.52;8.65;;;;;;;21.29;100.00;101521.56;4924762;29;20094;-72
2021/10/23 10:26:31;;;;;;;11.40;8.88;;;;;;;22.01;100.00;101523.25;4938297;29;20042;-72
2021/10/23 10:35:43;;;;;;;13.35;9.13;;;;;;;22.39;100.00;101501.59;4939427;28;20390;-71
2021/10/23 10:44:19;;;;;;;10.50;8.32;;;;;;;22.58;100.00;101501.50;4937727;29;20032;-73
2021/10/23 10:47:06;;;;;;;10.98;7.72;;;;;;;23.04;100.00;101511.38;4938637;29;20028;-72
2021/10/23 10:49:53;;;;;;;10.00;8.57;;;;;;;21.80;100.00;101509.22;4938692;29;20039;-72
2021/10/23 10:52:39;;;;;;;9.57;8.15;;;;;;;22.00;100.00;101516.19;4938378;29;20035;-72
2021/10/23 10:55:25;;;;;;;9.35;7.97;;;;;;;22.33;100.00;101509.09;4938243;29;20087;-72
2021/10/23 10:58:12;;;;;;;10.23;8.10;;;;;;;22.57;100.00;101511.34;4937545;29;20039;-72
2021/10/23 11:01:00;;;;;;;9.48;7.30;;;;;;;22.32;100.00;101507.38;4938237;29;20519;-71
2021/10/23 11:04:01;;;;;;;7.78;6.50;;;;;;;22.16;100.00;101514.47;4939238;28;20086;-72
2021/10/23 11:06:49;;;;;;;10.40;6.28;;;;;;;22.08;100.00;101511.31;4937476;29;20023;-70
2021/10/23 11:09:39;;;;;;;6.93;6.18;;;;;;;22.39;100.00;101506.09;4937423;29;20077;-71
2021/10/23 11:12:28;;;;;;;8.23;5.55;;;;;;;22.73;100.00;101509.56;4937899;29;20488;-71
2021/10/23 11:15:43;;;;;;;8.20;6.43;;;;;;;22.79;100.00;101509.22;4937059;29;20347;-71
2021/10/23 11:18:30;;;;;;;9.05;7.47;;;;;;;22.14;100.00;101505.69;4937717;29;20102;-71
2021/10/23 11:21:16;;;;;;;10.30;7.97;;;;;;;21.81;100.00;101504.72;4937452;29;20122;-71
2021/10/23 11:24:02;;;;;;;9.43;7.60;;;;;;;21.90;100.00;101505.13;4937322;29;20118;-71
2021/10/23 11:26:49;;;;;;;10.00;7.60;;;;;;;21.54;100.00;101509.63;4936557;29;20038;-70
2021/10/23 11:29:37;;;;;;;8.50;7.32;;;;;;;22.36;100.00;101501.78;4937709;29;20036;-70
2021/10/23 11:32:24;;;;;;;10.15;7.70;;;;;;;22.55;100.00;101499.03;4938106;29;20040;-70
2021/10/23 11:35:10;;;;;;;10.68;8.32;;;;;;;23.15;100.00;101504.47;4937503;29;20019;-70
2021/10/23 11:37:56;;;;;;;9.20;7.97;;;;;;;23.07;100.00;101512.06;4923489;29;20110;-71
2021/10/23 11:40:42;;;;;;;10.73;7.55;;;;;;;23.42;100.00;101514.59;4939197;29;20039;-70
2021/10/23 11:43:30;;;;;;;10.23;6.63;;;;;;;23.05;100.00;101503.28;4937354;29;20475;-70
2021/10/23 11:46:15;;;;;;;7.97;7.07;;;;;;;22.53;100.00;101495.56;4937272;29;20042;-71
2021/10/23 11:49:03;;;;;;;9.95;7.70;;;;;;;22.94;100.00;101499.47;4937228;29;20035;-71
2021/10/23 11:51:52;;;;;;;8.40;6.97;;;;;;;22.52;100.00;101494.72;4937872;29;20064;-71
2021/10/23 11:54:43;;;;;;;9.65;7.05;;;;;;;22.87;100.00;101496.28;4937356;29;20087;-70
2021/10/23 11:57:33;;;;;;;9.10;7.15;;;;;;;22.68;100.00;101506.28;4937222;29;20449;-70
2021/10/23 12:00:19;;;;;;;13.20;7.05;;;;;;;22.37;100.00;101499.97;4937622;29;20048;-71
2021/10/23 12:03:08;;;;;;;9.55;7.60;;;;;;;22.15;100.00;101489.56;4937188;29;20512;-71
2021/10/23 12:05:55;;;;;;;9.55;7.38;;;;;;;22.15;100.00;101497.56;4937505;29;20373;-71
2021/10/23 12:08:41;;;;;;;8.40;7.50;;;;;;;21.86;100.00;101497.38;4923958;29;20028;-72
2021/10/23 12:11:29;;;;;;;7.97;6.88;;;;;;;21.67;100.00;101496.56;4937227;29;20040;-71
2021/10/23 12:14:15;;;;;;;8.52;7.00;;;;;;;21.51;100.00;101491.13;4937137;29;20035;-71
2021/10/23 12:17:01;;;;;;;8.80;7.43;;;;;;;21.79;100.00;101488.81;4923086;29;20193;-72
2021/10/23 12:19:47;;;;;;;8.98;7.45;;;;;;;21.85;100.00;101491.16;4937280;29;20107;-71
2021/10/23 12:22:39;;;;;;;8.82;7.32;;;;;;;21.83;100.00;101501.03;4937319;29;20028;-72
2021/10/23 12:25:28;;;;;;;8.15;7.15;;;;;;;21.78;100.00;101500.44;4922956;29;20032;-72
2021/10/23 12:28:14;;;;;;;11.15;6.80;;;;;;;22.06;100.00;101502.56;4941589;29;20357;-72
2021/10/23 12:31:00;;;;;;;9.73;7.57;;;;;;;22.31;100.00;101509.16;4940744;29;20035;-72
2021/10/23 12:34:00;;;;;;;9.77;7.43;;;;;;;22.23;100.00;101506.03;4940371;29;20035;-73
2021/10/23 12:37:00;;;;;;;7.82;7.00;;;;;;;22.44;100.00;101520.94;4940938;29;20397;-71
2021/10/23 12:39:46;;;;;;;10.98;9.40;;;;;;;22.50;100.00;101512.63;4941200;29;20115;-71
2021/10/23 12:42:33;;;;;;;10.75;8.15;;;;;;;22.47;100.00;101512.78;4940413;29;20050;-72
2021/10/23 12:45:23;;;;;;;8.85;7.22;;;;;;;22.32;100.00;101512.69;4940952;29;20035;-72
2021/10/23 12:48:11;;;;;;;9.77;6.97;;;;;;;22.19;100.00;101507.13;4940318;29;20035;-71